Time;durP1;ratioP1;P1;durP2;ratioP2;P2;SDS_P1;SDS_P2;PMS_P1;PMS_P2;Temp;Humidity;BMP_temperature;BMP_pressure;BME280_temperature;BME280_humidity;BME280_pressure;Samples;Min_cycle;Max_cycle;Signal;HPM_P1;HPM_P2
2022/12/24 00:16:19;;;;;;;44.20;30.35;;;;;;;3.72;100.00;99066.13;1775256;78;23391;-59
2022/12/24 00:18:46;;;;;;;41.48;28.42;;;;;;;3.43;100.00;99069.83;1768405;80;21737;-59
2022/12/24 00:21:14;;;;;;;38.90;27.93;;;;;;;3.42;100.00;99056.41;1775035;79;21811;-59
2022/12/24 00:23:41;;;;;;;36.88;25.95;;;;;;;3.46;100.00;99062.39;1765337;80;21084;-59
2022/12/24 00:26:07;;;;;;;37.80;25.75;;;;;;;3.50;100.00;99060.12;1766291;79;21450;-58
2022/12/24 00:28:34;;;;;;;37.98;26.10;;;;;;;3.51;100.00;99055.34;1743210;80;21444;-58
2022/12/24 00:31:11;;;;;;;40.30;25.65;;;;;;;3.55;100.00;99056.13;1742504;80;21552;-58
2022/12/24 00:33:38;;;;;;;36.60;24.85;;;;;;;3.59;100.00;99057.77;1745885;80;21918;-57
2022/12/24 00:36:06;;;;;;;38.27;25.17;;;;;;;3.57;100.00;99054.35;1741971;80;21461;-57
2022/12/24 00:38:34;;;;;;;37.35;23.55;;;;;;;3.58;100.00;99050.84;1739058;80;20989;-57
2022/12/24 00:41:02;;;;;;;35.20;23.55;;;;;;;3.60;100.00;99047.75;1771887;78;21526;-58
2022/12/24 00:43:29;;;;;;;39.18;26.20;;;;;;;3.60;100.00;99052.53;1740399;80;21541;-57
2022/12/24 00:45:56;;;;;;;36.10;24.40;;;;;;;3.58;100.00;99052.14;1744504;79;21929;-57
2022/12/24 00:48:23;;;;;;;39.83;24.37;;;;;;;3.57;100.00;99051.75;1745465;79;28725;-58
2022/12/24 00:50:50;;;;;;;35.73;23.63;;;;;;;3.57;100.00;99052.59;1744188;81;21540;-57
2022/12/24 00:53:17;;;;;;;34.40;22.67;;;;;;;3.57;100.00;99059.55;1750029;79;21449;-58
2022/12/24 00:55:43;;;;;;;36.10;23.90;;;;;;;3.61;100.00;99052.08;1751661;79;21498;-58
2022/12/24 00:58:10;;;;;;;31.97;22.77;;;;;;;3.59;100.00;99052.56;1748556;79;21769;-58
2022/12/24 01:00:36;;;;;;;32.95;22.40;;;;;;;3.58;100.00;99054.31;1745539;81;21663;-58
2022/12/24 01:03:03;;;;;;;30.60;21.97;;;;;;;3.62;100.00;99048.15;1751117;78;21430;-58
2022/12/24 01:05:30;;;;;;;33.57;23.10;;;;;;;3.64;100.00;99045.06;1748639;79;21553;-60
2022/12/24 01:07:57;;;;;;;33.35;22.48;;;;;;;3.67;100.00;99044.12;1754205;79;21562;-58
2022/12/24 01:10:23;;;;;;;32.38;22.58;;;;;;;3.60;100.00;99046.03;1754613;79;22016;-59
2022/12/24 01:12:50;;;;;;;32.40;22.37;;;;;;;3.64;100.00;99051.56;1758205;79;21570;-58
2022/12/24 01:15:17;;;;;;;34.58;23.57;;;;;;;3.66;100.00;99054.13;1743715;79;21539;-59
2022/12/24 01:17:44;;;;;;;31.97;22.67;;;;;;;3.67;100.00;99054.10;1752745;79;22112;-58
2022/12/24 01:20:14;;;;;;;31.07;21.25;;;;;;;3.73;100.00;99050.50;1754986;79;21653;-58
2022/12/24 01:22:41;;;;;;;32.50;22.62;;;;;;;3.77;100.00;99062.53;1749228;79;21726;-58
2022/12/24 01:25:08;;;;;;;29.72;19.57;;;;;;;3.80;100.00;99058.98;1743288;80;21443;-58
2022/12/24 01:27:35;;;;;;;30.68;21.27;;;;;;;3.80;100.00;99058.98;1754947;79;21437;-58
2022/12/24 01:30:04;;;;;;;26.37;19.92;;;;;;;3.77;100.00;99049.52;1754587;79;21430;-58
2022/12/24 01:32:31;;;;;;;32.38;21.80;;;;;;;3.82;100.00;99054.59;1747029;79;20975;-58
2022/12/24 01:34:58;;;;;;;28.50;20.62;;;;;;;3.86;100.00;99051.91;1744973;79;21885;-58
2022/12/24 01:37:25;;;;;;;27.85;19.40;;;;;;;3.89;100.00;99049.66;1747878;79;21049;-58
2022/12/24 01:43:22;;;;;;;30.00;21.90;;;;;;;3.90;100.00;99050.92;1753006;79;21481;-58
2022/12/24 01:45:44;;;;;;;31.15;20.68;;;;;;;3.95;100.00;99048.20;1759156;79;21552;-58
2022/12/24 01:48:31;;;;;;;30.80;21.00;;;;;;;3.93;100.00;99046.08;1756943;79;21560;-59
2022/12/24 01:51:08;;;;;;;;;;;;;;;3.96;100.00;99046.47;1754391;79;21611;-58
2022/12/24 01:53:36;;;;;;;28.32;20.02;;;;;;;3.84;100.00;99038.09;1742385;79;20411;-59
2022/12/24 01:56:05;;;;;;;26.45;19.57;;;;;;;3.87;100.00;99030.64;1750873;79;21450;-59
2022/12/24 01:58:33;;;;;;;28.52;19.70;;;;;;;3.90;100.00;99031.42;1755666;79;26991;-59
2022/12/24 02:00:59;;;;;;;30.65;20.27;;;;;;;3.96;100.00;99029.11;1752514;79;21854;-59
2022/12/24 02:03:26;;;;;;;27.55;19.07;;;;;;;3.99;100.00;99027.71;1746903;79;21635;-59
2022/12/24 02:05:54;;;;;;;26.40;19.42;;;;;;;4.03;100.00;99024.16;1752737;79;21556;-59
2022/12/24 02:08:21;;;;;;;34.83;22.48;;;;;;;4.09;100.00;99027.05;1750761;79;21501;-59
2022/12/24 02:10:49;;;;;;;26.55;19.35;;;;;;;4.09;100.00;99025.75;1756322;81;21435;-60
2022/12/24 02:13:18;;;;;;;33.75;21.95;;;;;;;4.03;100.00;99020.26;1752354;81;21830;-59
2022/12/24 02:15:57;;;;;;;31.85;22.58;;;;;;;4.05;100.00;99012.39;1728691;81;21463;-59
2022/12/24 02:18:43;;;;;;;28.67;19.42;;;;;;;4.06;100.00;99020.61;1742305;79;21625;-58
2022/12/24 02:21:41;;;;;;;28.42;20.35;;;;;;;4.13;100.00;99020.02;1744875;79;21596;-58
2022/12/24 02:24:41;;;;;;;28.67;20.15;;;;;;;4.14;100.00;99006.94;1745368;79;21439;-58
2022/12/24 02:27:38;;;;;;;30.35;20.27;;;;;;;4.17;100.00;99012.08;1751619;79;22153;-57
2022/12/24 02:30:13;;;;;;;25.75;19.05;;;;;;;4.19;100.00;99015.48;1748675;79;21541;-57
2022/12/24 02:32:57;;;;;;;28.80;19.98;;;;;;;4.21;100.00;99012.84;1750738;81;21573;-59
2022/12/24 02:35:48;;;;;;;27.25;19.30;;;;;;;4.22;100.00;99012.81;1746122;79;21563;-57
2022/12/24 02:38:40;;;;;;;28.27;20.65;;;;;;;4.24;100.00;99013.62;1754193;81;21572;-57
2022/12/24 02:41:23;;;;;;;30.05;19.37;;;;;;;4.20;100.00;99015.91;1748845;81;21926;-57
2022/12/24 02:43:50;;;;;;;30.40;20.68;;;;;;;4.22;100.00;99015.42;1750594;79;21576;-58
2022/12/24 02:46:21;;;;;;;27.48;19.98;;;;;;;4.19;100.00;99013.34;1749616;79;21572;-58
2022/12/24 02:48:48;;;;;;;28.27;20.20;;;;;;;4.19;100.00;99017.24;1755622;79;21512;-58
2022/12/24 02:51:15;;;;;;;27.90;20.13;;;;;;;4.21;100.00;99020.20;1749507;81;20981;-58
2022/12/24 02:53:42;;;;;;;27.82;19.50;;;;;;;4.24;100.00;99016.23;1753742;79;21426;-58
2022/12/24 02:56:42;;;;;;;27.77;19.40;;;;;;;4.28;100.00;99007.44;1751959;79;21103;-58
2022/12/24 02:59:54;;;;;;;28.15;19.73;;;;;;;4.31;100.00;99014.30;1753216;81;22145;-58
2022/12/24 03:02:41;;;;;;;27.07;19.67;;;;;;;4.32;100.00;99004.30;1744713;81;21561;-58
2022/12/24 03:05:23;;;;;;;;;;;;;;;4.35;100.00;99008.56;1760201;79;21490;-59
2022/12/24 03:08:17;;;;;;;25.65;17.50;;;;;;;4.32;100.00;99004.30;1750119;81;21775;-58
2022/12/24 03:11:10;;;;;;;31.48;19.42;;;;;;;4.38;100.00;99013.23;1743652;79;21486;-59
2022/12/24 03:13:37;;;;;;;25.92;19.10;;;;;;;4.37;100.00;99006.77;1749973;79;21553;-58
2022/12/24 03:16:10;;;;;;;27.62;19.77;;;;;;;4.37;100.00;99002.86;1752235;79;21553;-58
2022/12/24 03:18:41;;;;;;;25.43;17.92;;;;;;;4.40;100.00;99006.69;1770087;78;20971;-58
2022/12/24 03:21:28;;;;;;;26.20;18.35;;;;;;;4.44;100.00;99009.61;1741996;80;21888;-58
2022/12/24 03:23:54;;;;;;;24.63;18.05;;;;;;;4.46;100.00;99007.39;1751081;79;21413;-59
2022/12/24 03:26:21;;;;;;;26.48;18.62;;;;;;;4.49;100.00;99012.95;1750182;79;21552;-58
2022/12/24 03:28:48;;;;;;;25.85;19.23;;;;;;;4.49;100.00;99016.39;1721186;81;21540;-59
2022/12/24 03:31:15;;;;;;;25.82;18.50;;;;;;;4.54;100.00;99014.98;1751678;79;21462;-59
2022/12/24 03:33:41;;;;;;;25.10;18.48;;;;;;;4.52;100.00;99008.97;1745177;81;21775;-58
2022/12/24 03:36:09;;;;;;;25.85;18.77;;;;;;;4.51;100.00;99002.03;1753029;79;21571;-58
2022/12/24 03:38:36;;;;;;;26.25;19.07;;;;;;;4.53;100.00;99004.14;1752821;81;21052;-58
2022/12/24 03:41:03;;;;;;;32.48;19.62;;;;;;;4.53;100.00;99004.61;1755380;79;21574;-58
2022/12/24 03:43:29;;;;;;;28.27;18.55;;;;;;;4.53;100.00;99002.84;1750908;79;21608;-58
2022/12/24 03:45:56;;;;;;;26.25;19.02;;;;;;;4.51;100.00;99000.73;1750808;80;21882;-58
2022/12/24 03:48:22;;;;;;;25.43;17.30;;;;;;;4.49;100.00;98999.47;1755721;79;21495;-58
2022/12/24 03:50:49;;;;;;;25.88;17.77;;;;;;;4.49;100.00;98994.27;1753121;79;21430;-58
2022/12/24 03:53:16;;;;;;;27.13;18.45;;;;;;;4.50;100.00;99004.22;1751742;79;21470;-58
2022/12/24 03:55:43;;;;;;;29.50;20.43;;;;;;;4.46;100.00;99000.00;1753088;80;21518;-58
2022/12/24 03:58:09;;;;;;;23.83;18.95;;;;;;;4.37;100.00;99005.47;1750075;79;21891;-59
2022/12/24 04:00:36;;;;;;;27.62;19.32;;;;;;;4.40;100.00;98999.73;1759386;79;21521;-59
2022/12/24 04:03:03;;;;;;;28.02;19.85;;;;;;;4.38;100.00;99005.88;1752862;81;21553;-58
2022/12/24 04:05:30;;;;;;;29.80;19.40;;;;;;;4.35;100.00;99011.16;1757013;79;21546;-59
2022/12/24 04:07:56;;;;;;;28.45;18.82;;;;;;;4.25;100.00;99014.02;1744589;81;21437;-59
2022/12/24 04:10:23;;;;;;;25.25;18.98;;;;;;;4.24;100.00;99008.88;1749193;79;21952;-58
2022/12/24 04:12:52;;;;;;;28.77;20.08;;;;;;;4.31;100.00;99010.39;1752424;79;21462;-58
2022/12/24 04:15:19;;;;;;;29.45;20.37;;;;;;;4.28;100.00;99000.93;1752729;79;21545;-60
2022/12/24 04:17:45;;;;;;;26.85;18.85;;;;;;;4.32;100.00;99000.86;1754340;79;20962;-59
2022/12/24 04:20:11;;;;;;;25.85;19.82;;;;;;;4.29;100.00;99003.08;1747773;79;21533;-58
2022/12/24 04:22:38;;;;;;;28.67;19.40;;;;;;;4.32;100.00;99000.86;1748388;79;21809;-60
2022/12/24 04:25:07;;;;;;;28.15;20.00;;;;;;;4.21;100.00;98996.78;1752722;80;20955;-58
2022/12/24 04:27:34;;;;;;;27.17;20.00;;;;;;;4.18;100.00;98992.98;1755680;79;21535;-58
2022/12/24 04:30:00;;;;;;;29.63;20.00;;;;;;;4.15;100.00;98996.11;1756341;79;21536;-59
2022/12/24 04:32:27;;;;;;;27.57;20.23;;;;;;;4.15;100.00;98992.20;1756025;81;21466;-58
2022/12/24 04:34:54;;;;;;;28.73;20.62;;;;;;;4.15;100.00;98990.45;1757245;79;21823;-58
2022/12/24 04:37:21;;;;;;;24.92;18.50;;;;;;;4.23;100.00;98997.59;1746199;79;21056;-59
2022/12/24 04:39:48;;;;;;;25.85;18.80;;;;;;;4.29;100.00;98990.06;1752109;79;21444;-59
2022/12/24 04:42:15;;;;;;;29.75;19.07;;;;;;;4.32;100.00;98995.20;1750324;79;21627;-58
2022/12/24 04:44:42;;;;;;;25.23;18.27;;;;;;;4.37;100.00;99000.26;1753405;79;21127;-58
2022/12/24 04:47:09;;;;;;;27.42;19.48;;;;;;;4.38;100.00;98996.77;1744578;79;21838;-58
2022/12/24 04:49:36;;;;;;;29.67;19.05;;;;;;;4.35;100.00;98996.84;1752975;79;21645;-59
2022/12/24 04:52:03;;;;;;;24.00;18.95;;;;;;;4.35;100.00;98996.42;1755948;79;21510;-58
2022/12/24 04:54:30;;;;;;;24.67;18.65;;;;;;;4.34;100.00;99000.36;1754008;79;21589;-58
2022/12/24 04:56:56;;;;;;;26.85;18.30;;;;;;;4.37;100.00;98992.03;1754066;79;21592;-60
2022/12/24 04:59:23;;;;;;;25.55;18.02;;;;;;;4.40;100.00;98998.42;1751500;79;22117;-58
2022/12/24 05:01:50;;;;;;;31.73;18.62;;;;;;;4.39;100.00;98998.47;1752788;79;21437;-58
2022/12/24 05:04:16;;;;;;;26.75;20.37;;;;;;;4.34;100.00;98999.06;1755343;79;21664;-58
2022/12/24 05:06:43;;;;;;;25.32;19.35;;;;;;;4.30;100.00;98996.98;1751979;79;21764;-58
2022/12/24 05:09:09;;;;;;;29.25;20.60;;;;;;;4.49;100.00;98999.47;1752607;81;21565;-58
2022/12/24 05:11:36;;;;;;;28.57;20.30;;;;;;;4.36;100.00;98993.36;1755328;79;22161;-59
2022/12/24 05:14:03;;;;;;;27.67;19.90;;;;;;;4.32;100.00;98987.39;1752896;79;21488;-59
2022/12/24 05:16:31;;;;;;;;;;;;;;;4.43;100.00;98990.55;1749339;79;21512;-59
2022/12/24 05:18:57;;;;;;;27.35;19.48;;;;;;;4.40;100.00;98990.62;1755874;79;20591;-59
2022/12/24 05:21:24;;;;;;;28.27;19.70;;;;;;;4.48;100.00;98993.00;1755492;79;21580;-60
2022/12/24 05:26:43;;;;;;;28.23;19.10;;;;;;;4.23;100.00;98992.39;1753199;79;21580;-58
2022/12/24 05:29:11;;;;;;;26.93;19.42;;;;;;;4.40;100.00;99001.48;1746912;81;21509;-58
2022/12/24 05:31:39;;;;;;;25.62;18.92;;;;;;;4.39;100.00;98994.56;1758467;79;21500;-58
2022/12/24 05:34:07;;;;;;;27.70;20.05;;;;;;;4.39;100.00;98990.23;1745693;81;20949;-58
2022/12/24 05:36:33;;;;;;;27.20;20.17;;;;;;;4.43;100.00;98998.81;1760786;79;21789;-58
2022/12/24 05:39:00;;;;;;;27.10;19.45;;;;;;;4.43;100.00;98997.05;1753032;81;21600;-58
2022/12/24 05:41:27;;;;;;;26.87;19.00;;;;;;;4.29;100.00;99001.35;1753043;79;21518;-58
2022/12/24 05:43:53;;;;;;;26.90;19.37;;;;;;;4.34;100.00;99002.97;1755586;79;21465;-58
2022/12/24 05:46:21;;;;;;;25.52;18.57;;;;;;;4.24;100.00;99007.12;1754502;79;21584;-58
2022/12/24 05:48:48;;;;;;;27.15;19.82;;;;;;;4.41;100.00;99007.11;1748384;79;22011;-57
2022/12/24 05:51:18;;;;;;;28.20;20.40;;;;;;;4.43;100.00;99004.02;1749403;79;21201;-58
2022/12/24 05:53:45;;;;;;;26.77;19.27;;;;;;;4.33;100.00;99009.05;1751077;81;21433;-58
2022/12/24 05:56:15;;;;;;;31.60;21.33;;;;;;;4.12;100.00;99010.49;1754648;79;21529;-58
2022/12/24 07:00:53;;;;;;;29.30;21.37;;;;;;;2.14;100.00;99033.07;1815762;77;27226;-58
2022/12/24 07:03:21;;;;;;;28.85;20.40;;;;;;;2.52;100.00;99055.28;1776006;77;21066;-57
2022/12/24 07:05:48;;;;;;;30.62;21.62;;;;;;;2.76;100.00;99059.59;1774744;77;22149;-57
2022/12/24 07:08:15;;;;;;;32.93;22.13;;;;;;;2.98;100.00;99058.71;1772547;78;21591;-59
2022/12/24 07:10:43;;;;;;;29.00;19.95;;;;;;;3.14;100.00;99063.12;1767553;78;21469;-59
2022/12/24 07:13:11;;;;;;;34.27;21.80;;;;;;;3.28;100.00;99059.33;1764119;78;21571;-59
2022/12/24 07:15:39;;;;;;;28.12;20.08;;;;;;;3.41;100.00;99063.81;1768474;78;21575;-60
2022/12/24 07:18:06;;;;;;;25.50;18.30;;;;;;;3.50;100.00;99070.09;1771178;78;21617;-59
2022/12/24 07:20:33;;;;;;;27.75;19.35;;;;;;;3.62;100.00;99062.45;1710558;81;21627;-60
2022/12/24 07:23:00;;;;;;;27.35;18.65;;;;;;;3.73;100.00;99057.00;1740367;80;21545;-59
2022/12/24 07:25:27;;;;;;;25.17;18.55;;;;;;;3.83;100.00;99050.66;1764665;77;21577;-59
2022/12/24 07:27:54;;;;;;;29.30;19.70;;;;;;;4.00;100.00;99052.00;1727377;78;21624;-58
2022/12/24 07:30:22;;;;;;;29.87;18.87;;;;;;;4.12;100.00;99048.22;1770166;77;21891;-58
2022/12/24 07:32:49;;;;;;;27.53;20.53;;;;;;;4.29;100.00;99037.78;1736783;79;21513;-58
2022/12/24 07:35:16;;;;;;;30.05;19.00;;;;;;;4.29;100.00;99037.78;1754378;78;21560;-60
2022/12/24 07:37:43;;;;;;;27.32;19.52;;;;;;;4.38;100.00;99044.93;1761274;79;21452;-59
2022/12/24 07:40:11;;;;;;;25.57;18.45;;;;;;;4.46;100.00;99038.63;1689756;82;21532;-58
2022/12/24 07:42:38;;;;;;;29.30;19.32;;;;;;;4.54;100.00;99051.86;1723638;80;21896;-59
2022/12/24 07:45:06;;;;;;;25.32;17.60;;;;;;;4.53;100.00;99037.99;1708019;81;21117;-61
2022/12/24 07:47:34;;;;;;;24.67;17.27;;;;;;;4.56;100.00;99035.31;1671526;79;21145;-65
2022/12/24 11:14:21;;;;;;;18.98;13.35;;;;;;;3.94;100.00;99045.63;1783841;78;22601;-61
2022/12/24 11:16:54;;;;;;;24.43;17.98;;;;;;;4.37;100.00;99058.40;1761825;80;21556;-61
2022/12/24 11:19:26;;;;;;;30.95;21.33;;;;;;;4.58;100.00;99054.35;1757685;80;21589;-60
2022/12/24 11:22:03;;;;;;;34.45;24.60;;;;;;;4.75;100.00;99058.24;1766000;80;21524;-61
2022/12/24 11:24:33;;;;;;;36.08;26.75;;;;;;;4.90;100.00;99049.98;1750865;80;21737;-60
2022/12/24 11:27:25;;;;;;;32.83;24.27;;;;;;;5.05;100.00;99045.61;1770163;80;21605;-59
2022/12/24 11:29:51;;;;;;;34.98;25.40;;;;;;;5.23;100.00;99037.67;1765683;80;21426;-62
2022/12/24 11:32:21;;;;;;;38.25;28.23;;;;;;;5.42;100.00;99034.50;1760803;80;21885;-60
2022/12/24 11:34:48;;;;;;;33.58;29.77;;;;;;;5.56;100.00;99036.23;1761776;80;21443;-61
2022/12/24 11:37:23;;;;;;;33.80;25.82;;;;;;;5.73;100.00;99046.12;1760282;80;21516;-61
2022/12/24 11:39:56;;;;;;;33.60;25.55;;;;;;;5.90;100.00;99048.63;1770209;80;21589;-59
2022/12/24 11:42:37;;;;;;;34.35;24.87;;;;;;;6.04;100.00;99044.66;1765375;80;21624;-61
2022/12/24 11:45:09;;;;;;;36.13;28.05;;;;;;;6.15;100.00;99047.38;1766917;80;22137;-59
2022/12/24 11:47:39;;;;;;;43.68;32.33;;;;;;;6.26;100.00;99045.71;1757388;80;21430;-61
2022/12/24 11:50:31;;;;;;;45.85;32.17;;;;;;;6.31;100.00;99039.42;1764178;80;21653;-60
2022/12/24 11:53:18;;;;;;;67.60;42.25;;;;;;;6.37;100.00;99038.36;1769474;80;21451;-59
2022/12/24 11:55:56;;;;;;;52.80;39.45;;;;;;;6.43;100.00;99044.66;1756461;80;21572;-60
2022/12/24 11:58:38;;;;;;;71.40;50.75;;;;;;;6.49;100.00;99037.91;1764703;80;21795;-60
2022/12/24 12:01:25;;;;;;;79.07;49.83;;;;;;;6.53;100.00;99039.95;1770319;80;21549;-61
2022/12/24 12:03:59;;;;;;;55.67;34.18;;;;;;;6.56;100.00;99034.63;1741042;80;21461;-61
2022/12/24 12:06:37;;;;;;;41.42;29.15;;;;;;;6.59;100.00;99034.07;1764324;80;21481;-62
2022/12/24 12:09:20;;;;;;;35.43;25.80;;;;;;;6.65;100.00;99029.51;1759301;80;22001;-62
2022/12/24 12:11:54;;;;;;;33.98;24.57;;;;;;;6.73;100.00;99027.48;1765010;80;21573;-61
2022/12/24 12:14:28;;;;;;;33.73;23.05;;;;;;;6.82;100.00;99026.69;1733133;80;21611;-59
2022/12/24 12:17:12;;;;;;;31.45;23.07;;;;;;;6.90;100.00;99013.80;1729401;81;21488;-61
2022/12/24 12:19:50;;;;;;;30.25;21.93;;;;;;;6.95;100.00;99023.59;1738700;80;21562;-62
2022/12/24 12:22:35;;;;;;;34.48;22.32;;;;;;;6.96;100.00;99025.31;1735188;81;21415;-60
2022/12/24 12:25:01;;;;;;;34.45;24.37;;;;;;;7.00;100.00;99025.59;1732448;81;21925;-61
2022/12/24 12:27:39;;;;;;;32.60;23.13;;;;;;;6.98;100.00;99028.25;1736017;81;21462;-60
2022/12/24 12:30:17;;;;;;;36.50;25.30;;;;;;;7.00;100.00;99035.58;1737864;80;21544;-65
2022/12/24 12:33:03;;;;;;;32.05;23.18;;;;;;;6.99;100.00;99039.13;1734491;82;21087;-61
2022/12/24 12:35:37;;;;;;;44.70;29.15;;;;;;;7.00;100.00;99047.34;1734265;80;21017;-58
2022/12/24 12:38:12;;;;;;;53.90;31.93;;;;;;;6.99;100.00;99060.50;1737400;82;21979;-60
2022/12/24 12:41:23;;;;;;;69.55;38.73;;;;;;;6.96;100.00;99061.91;1739117;81;21640;-59
2022/12/24 12:43:58;;;;;;;50.28;31.87;;;;;;;6.97;100.00;99059.70;1727226;82;21510;-60
2022/12/24 12:46:55;;;;;;;37.73;26.52;;;;;;;6.86;100.00;99061.40;1733902;80;21628;-60
2022/12/24 12:49:56;;;;;;;31.20;22.58;;;;;;;6.80;100.00;99059.02;1640929;85;21555;-60
2022/12/24 12:53:06;;;;;;;31.65;23.62;;;;;;;6.72;100.00;99063.19;1723273;81;21848;-60
2022/12/24 12:55:56;;;;;;;29.00;21.40;;;;;;;6.71;100.00;99065.88;1723775;82;21642;-60
2022/12/24 12:58:36;;;;;;;28.85;20.75;;;;;;;6.69;100.00;99065.09;1735415;82;21600;-59
2022/12/24 13:01:17;;;;;;;24.98;19.05;;;;;;;6.65;100.00;99066.08;1735275;82;21582;-61
2022/12/24 13:04:08;;;;;;;30.15;20.20;;;;;;;6.62;100.00;99077.04;1732171;81;21592;-62
2022/12/24 13:07:24;;;;;;;29.20;20.60;;;;;;;6.62;100.00;99076.20;1736050;81;21796;-59
2022/12/24 13:09:59;;;;;;;28.95;20.50;;;;;;;6.60;100.00;99069.72;1657035;81;21565;-60
2022/12/24 13:13:01;;;;;;;30.37;20.60;;;;;;;6.55;100.00;99072.94;1732903;81;20993;-60
2022/12/24 13:16:04;;;;;;;30.25;21.07;;;;;;;6.49;100.00;99069.24;1701354;80;21565;-62
2022/12/24 13:19:00;;;;;;;31.97;21.93;;;;;;;6.46;100.00;99079.81;1754882;79;21522;-60
2022/12/24 13:21:28;;;;;;;30.05;21.57;;;;;;;6.40;100.00;99082.19;1762040;80;21809;-60
2022/12/24 13:24:08;;;;;;;29.98;21.82;;;;;;;6.38;100.00;99080.05;1759138;80;21423;-61
2022/12/24 13:26:35;;;;;;;29.15;21.05;;;;;;;6.36;100.00;99081.03;1737263;80;21501;-59
2022/12/24 13:29:36;;;;;;;29.77;20.82;;;;;;;6.37;100.00;99087.97;1768985;80;21570;-61
2022/12/24 13:32:27;;;;;;;27.20;20.32;;;;;;;6.35;100.00;99098.46;1671111;83;21613;-61
2022/12/24 13:35:03;;;;;;;26.97;20.60;;;;;;;6.34;100.00;99103.27;1687262;83;22057;-59
2022/12/24 13:37:33;;;;;;;28.65;20.68;;;;;;;6.32;100.00;99104.23;1730405;80;21430;-60
2022/12/24 13:40:08;;;;;;;30.40;21.93;;;;;;;6.27;100.00;99103.53;1760574;80;21517;-60
2022/12/24 13:43:04;;;;;;;31.30;22.58;;;;;;;6.23;100.00;99102.78;1770526;80;21490;-61
2022/12/24 13:45:40;;;;;;;33.05;23.75;;;;;;;6.18;100.00;99099.03;1759267;78;21442;-63
2022/12/24 13:48:12;;;;;;;32.93;23.00;;;;;;;6.10;100.00;99106.70;1766988;80;21859;-64
2022/12/24 13:50:48;;;;;;;32.75;22.65;;;;;;;6.09;100.00;99114.16;1765635;80;21434;-61
2022/12/24 13:53:22;;;;;;;48.15;29.32;;;;;;;5.99;100.00;99110.53;1762852;80;21581;-61
2022/12/24 18:34:19;;;;;;;30.88;19.25;;;;;;;1.98;100.00;99311.70;1769855;78;23069;-66
2022/12/24 18:36:46;;;;;;;31.47;21.60;;;;;;;2.48;100.00;99337.81;1740902;80;20989;-68
2022/12/24 18:39:13;;;;;;;33.88;23.67;;;;;;;2.73;100.00;99336.98;1731713;80;23185;-66
2022/12/24 18:41:39;;;;;;;36.85;25.00;;;;;;;2.92;100.00;99337.13;1734168;80;21629;-67
2022/12/24 18:44:06;;;;;;;35.95;24.85;;;;;;;3.09;100.00;99335.53;1734587;80;21525;-68
2022/12/24 18:46:33;;;;;;;35.63;25.65;;;;;;;3.27;100.00;99339.98;1722778;80;21419;-69
2022/12/24 18:49:00;;;;;;;34.80;24.00;;;;;;;3.41;100.00;99343.20;1745588;80;21422;-67
2022/12/24 18:51:31;;;;;;;34.83;23.87;;;;;;;3.52;100.00;99342.98;1738343;80;22082;-66
2022/12/24 18:53:57;;;;;;;33.63;24.57;;;;;;;3.65;100.00;99347.05;1726793;81;21506;-67
2022/12/24 18:56:25;;;;;;;37.70;24.85;;;;;;;3.81;100.00;99343.73;1731271;81;21501;-62
2022/12/24 18:58:54;;;;;;;33.30;23.22;;;;;;;3.92;100.00;99346.54;1733221;81;21598;-67
2022/12/24 19:01:50;;;;;;;34.55;25.05;;;;;;;4.03;100.00;99351.95;1635757;82;21602;-62
2022/12/24 19:04:17;;;;;;;36.13;23.73;;;;;;;4.18;100.00;99352.08;1661622;83;22162;-63
2022/12/24 19:06:45;;;;;;;33.83;24.00;;;;;;;4.29;100.00;99357.91;1643992;85;21056;-62
2022/12/24 19:09:12;;;;;;;33.67;23.85;;;;;;;4.38;100.00;99346.88;1670020;84;21572;-62
2022/12/24 19:11:40;;;;;;;31.55;23.73;;;;;;;4.45;100.00;99345.86;1668355;84;21047;-63
2022/12/24 19:14:09;;;;;;;33.08;23.22;;;;;;;4.52;100.00;99351.34;1655855;84;21065;-62
2022/12/24 19:16:38;;;;;;;30.15;23.27;;;;;;;4.57;100.00;99348.16;1697485;82;22838;-63
2022/12/24 19:19:07;;;;;;;33.80;24.50;;;;;;;4.64;100.00;99347.59;1662464;85;21526;-61
2022/12/24 19:21:33;;;;;;;31.07;22.55;;;;;;;4.68;100.00;99346.63;1655923;85;21636;-63
2022/12/24 19:24:00;;;;;;;30.92;22.85;;;;;;;4.71;100.00;99347.86;1656413;84;21599;-62
2022/12/24 19:26:27;;;;;;;30.92;22.13;;;;;;;4.73;100.00;99356.48;1670432;84;21537;-63
2022/12/24 19:28:54;;;;;;;31.23;23.12;;;;;;;4.75;100.00;99352.55;1656147;85;21875;-63
2022/12/24 19:31:23;;;;;;;31.17;22.77;;;;;;;4.74;100.00;99360.79;1659970;85;21538;-62
2022/12/24 19:33:55;;;;;;;27.58;20.60;;;;;;;4.76;100.00;99365.52;1661562;83;21096;-63
2022/12/24 19:36:25;;;;;;;33.05;23.20;;;;;;;4.75;100.00;99365.12;1694686;83;21501;-63
2022/12/24 19:38:52;;;;;;;29.67;22.10;;;;;;;4.72;100.00;99374.75;1655096;85;21552;-62
2022/12/24 19:41:25;;;;;;;28.70;21.00;;;;;;;4.70;100.00;99376.08;1663640;83;21912;-62
2022/12/24 19:43:54;;;;;;;35.15;23.83;;;;;;;4.68;100.00;99377.42;1661404;85;21628;-62
2022/12/24 19:46:26;;;;;;;33.02;23.70;;;;;;;4.63;100.00;99379.72;1659957;85;21589;-62
2022/12/24 19:48:56;;;;;;;34.40;25.52;;;;;;;4.63;100.00;99379.30;1665746;85;20988;-64
2022/12/24 19:51:24;;;;;;;39.38;26.62;;;;;;;4.65;100.00;99381.41;1666957;85;21618;-61
2022/12/24 19:53:53;;;;;;;35.33;25.68;;;;;;;4.71;100.00;99385.63;1667061;83;21797;-62
2022/12/24 19:56:21;;;;;;;37.45;26.33;;;;;;;4.72;100.00;99389.08;1643025;85;21611;-60
2022/12/24 19:58:48;;;;;;;38.25;27.22;;;;;;;4.73;100.00;99386.45;1657605;85;21092;-61
2022/12/24 20:01:20;;;;;;;38.05;25.15;;;;;;;4.75;100.00;99393.77;1665331;83;21517;-61
2022/12/24 20:03:48;;;;;;;40.28;27.70;;;;;;;4.77;100.00;99393.75;1673888;82;21501;-61
2022/12/24 20:06:16;;;;;;;35.60;25.65;;;;;;;4.79;100.00;99398.02;1651310;85;21911;-61
2022/12/24 20:08:44;;;;;;;38.73;26.75;;;;;;;4.79;100.00;99399.31;1660316;85;21062;-60
2022/12/24 20:11:13;;;;;;;36.20;26.23;;;;;;;4.81;100.00;99400.59;1657983;84;21557;-60
2022/12/24 20:13:42;;;;;;;34.67;25.85;;;;;;;4.85;100.00;99399.63;1651887;83;21081;-63
2022/12/24 20:16:18;;;;;;;33.65;26.17;;;;;;;4.90;100.00;99405.59;1659196;84;21533;-62
2022/12/24 20:18:57;;;;;;;36.33;24.40;;;;;;;4.96;100.00;99405.89;1663425;85;21763;-61
2022/12/24 20:21:24;;;;;;;31.80;24.12;;;;;;;4.96;100.00;99403.28;1660660;84;21596;-61
2022/12/24 20:23:51;;;;;;;36.23;26.25;;;;;;;4.99;100.00;99404.08;1661505;85;21104;-62
2022/12/24 20:26:19;;;;;;;35.13;24.67;;;;;;;4.98;100.00;99408.02;1654642;85;21482;-64
2022/12/24 20:28:46;;;;;;;37.88;26.45;;;;;;;4.99;100.00;99409.28;1660950;84;21451;-68
2022/12/24 20:31:16;;;;;;;33.48;24.50;;;;;;;5.03;100.00;99410.92;1660302;84;21545;-66
2022/12/24 20:33:43;;;;;;;34.13;25.90;;;;;;;5.06;100.00;99414.73;1660771;84;21514;-65
2022/12/24 20:36:12;;;;;;;;;;;;;;;5.15;100.00;99415.42;1658294;84;21508;-64
2022/12/24 20:38:39;;;;;;;39.23;28.40;;;;;;;5.12;100.00;99408.97;1651313;84;20490;-65
2022/12/24 20:41:08;;;;;;;41.37;29.77;;;;;;;5.24;100.00;99415.20;1657719;84;21547;-67
2022/12/24 20:43:39;;;;;;;38.48;28.07;;;;;;;5.26;100.00;99418.17;1646824;85;21702;-65
2022/12/24 20:46:06;;;;;;;36.13;25.85;;;;;;;5.21;100.00;99416.57;1646298;84;21573;-64
2022/12/24 20:48:32;;;;;;;35.97;27.13;;;;;;;5.20;100.00;99417.48;1660003;84;21470;-64
2022/12/24 20:51:01;;;;;;;35.48;26.62;;;;;;;5.24;100.00;99416.51;1653583;85;21485;-64
2022/12/24 20:53:28;;;;;;;40.98;28.92;;;;;;;5.25;100.00;99419.51;1633725;85;21048;-66
2022/12/24 20:55:54;;;;;;;37.25;26.15;;;;;;;5.20;100.00;99422.70;1650339;84;21410;-65
2022/12/24 20:58:21;;;;;;;34.05;25.20;;;;;;;5.21;100.00;99417.88;1650760;85;21509;-67
2022/12/24 21:00:49;;;;;;;30.45;23.85;;;;;;;5.24;100.00;99424.33;1658174;84;21005;-65
2022/12/24 21:03:16;;;;;;;34.55;24.82;;;;;;;5.28;100.00;99431.63;1673170;84;21501;-63
2022/12/24 21:05:44;;;;;;;35.40;26.35;;;;;;;5.35;100.00;99425.34;1679485;84;21112;-62
2022/12/24 21:08:11;;;;;;;33.05;25.05;;;;;;;5.38;100.00;99429.19;1675395;84;21813;-65